Latest Weather Observations for Mount William

IDV60801

Issued at 3:42 pm EDT Tuesday 29 November 2022 (issued every 10 minutes, with the page automatically refreshed every 10 minutes)

About weather observations | Map of weather stations | Latest weather observations for VIC | Other Formats
Station Details ID: 079103 Name: MOUNT WILLIAM Lat: -37.30 Lon: 142.60 Height: 1150.0 m
Data from the previous 72 hours. | See also: Recent months at Mount William
Date/Time
EDT
Temp
°C
App
Temp
°C
Dew
Point
°C
Rel
Hum
%
Delta-T
°C
Wind Press
QNH
hPa
Press
MSL
hPa
Rain since
9am
mm
Dir  Spd
km/h
Gust
km/h
Spd
kts
Gust
kts
29/03:30pm 9.3 5.7 5.1 75 2.0 WSW 13 20 7 11 - - 0.0
29/03:00pm 10.5 8.1 4.4 66 2.9 WSW 6 13 3 7 - - 0.0
29/02:30pm 10.3 6.8 5.5 72 2.4 WSW 13 22 7 12 - - 0.0
29/02:00pm 9.5 7.3 5.1 74 2.1 WSW 6 11 3 6 - - 0.0
29/01:30pm 9.6 6.4 5.0 73 2.2 W 11 19 6 10 - - 0.0
29/01:00pm 8.6 5.3 4.8 77 1.8 WSW 11 24 6 13 - - 0.0
29/12:30pm 8.2 4.6 5.0 80 1.5 SW 13 22 7 12 - - 0.0
29/12:00pm 7.9 4.5 5.7 86 1.1 SW 13 26 7 14 - - 0.0
29/11:30am 7.3 3.7 5.1 86 1.0 SW 13 24 7 13 - - 0.0
29/11:00am 6.3 3.5 5.3 93 0.5 WSW 9 20 5 11 - - 0.0
29/10:30am 6.0 2.2 5.6 97 0.2 WSW 15 28 8 15 - - 0.0
29/10:00am 5.2 0.5 5.1 99 0.0 SW 19 32 10 17 - - 0.0
29/09:30am 4.9 0.0 4.9 100 0.0 WSW 20 35 11 19 - - 0.0
29/09:00am 4.2 -1.6 4.2 100 0.0 WSW 24 39 13 21 - - 3.8
29/08:30am 4.0 -1.5 4.0 100 0.0 WSW 22 44 12 24 - - 3.8
29/08:00am 4.0 -0.9 4.0 100 0.0 WSW 19 37 10 20 - - 3.8
29/07:30am 3.9 -1.6 3.9 100 0.0 WSW 22 39 12 21 - - 3.8
29/07:00am 3.8 -1.2 3.8 100 0.0 WSW 19 37 10 20 - - 3.8
29/06:30am 4.1 -0.8 4.1 100 0.0 WSW 19 35 10 19 - - 3.8
29/06:00am 4.3 0.2 4.3 100 0.0 WSW 15 43 8 23 - - 3.6
29/05:30am 4.2 -0.9 4.2 100 0.0 WSW 20 44 11 24 - - 3.6
29/05:00am 4.5 -0.5 4.5 100 0.0 WSW 20 33 11 18 - - 3.6
29/04:30am 4.4 -0.4 4.4 100 0.0 WSW 19 32 10 17 - - 3.2
29/04:00am 4.3 -1.5 4.3 100 0.0 WSW 24 48 13 26 - - 3.2
29/03:30am 4.6 -0.4 4.6 100 0.0 W 20 44 11 24 - - 2.8
29/03:00am 4.5 -0.3 4.5 100 0.0 W 19 44 10 24 - - 2.8
29/02:30am 4.7 -0.1 4.7 100 0.0 WSW 19 33 10 18 - - 2.6
29/02:00am 4.5 -0.9 4.5 100 0.0 W 22 39 12 21 - - 2.4
29/01:30am 4.9 0.0 4.9 100 0.0 W 20 41 11 22 - - 2.2
29/01:00am 5.0 -0.7 5.0 100 0.0 WSW 24 46 13 25 - - 2.2
29/12:30am 5.1 0.2 5.1 100 0.0 W 20 37 11 20 - - 2.0
29/12:00am 5.1 0.4 5.1 100 0.0 WSW 19 35 10 19 - - 2.0
 
Date/Time
EDT
Temp
°C
App
Temp
°C
Dew
Point
°C
Rel
Hum
%
Delta-T
°C
Wind Press
QNH
hPa
Press
MSL
hPa
Rain since
9am
mm
Dir  Spd
km/h
Gust
km/h
Spd
kts
Gust
kts
28/11:30pm 4.9 -0.4 4.9 100 0.0 W 22 44 12 24 - - 2.0
28/11:00pm 5.0 0.1 5.0 100 0.0 W 20 39 11 21 - - 1.8
28/10:30pm 5.2 -0.5 5.1 99 0.0 WSW 24 48 13 26 - - 1.8
28/10:00pm 5.7 0.1 5.6 99 0.0 WSW 24 43 13 23 - - 1.4
28/09:30pm 5.6 0.0 5.5 99 0.0 WSW 24 54 13 29 - - 1.2
28/09:00pm 5.9 1.7 5.8 99 0.0 WSW 17 33 9 18 - - 0.8
28/08:30pm 5.8 2.0 5.7 99 0.0 WSW 15 32 8 17 - - 0.4
28/08:00pm 5.9 2.1 5.8 99 0.0 W 15 30 8 16 - - 0.4
28/07:30pm 5.9 1.7 5.6 98 0.1 WSW 17 35 9 19 - - 0.2
28/07:00pm 6.3 2.1 5.9 97 0.2 WSW 17 37 9 20 - - 0.2
28/06:30pm 6.4 2.7 6.1 98 0.1 WSW 15 32 8 17 - - 0.2
28/06:00pm 6.5 1.9 6.4 99 0.0 W 20 44 11 24 - - 0.2
28/05:30pm 6.6 3.3 6.2 97 0.2 W 13 30 7 16 - - 0.2
28/05:00pm 6.6 2.5 6.2 97 0.2 WSW 17 32 9 17 - - 0.2
28/04:30pm 7.4 3.5 5.4 87 1.0 WSW 15 28 8 15 - - 0.0
28/04:00pm 7.9 4.0 5.2 83 1.3 W 15 26 8 14 - - 0.0
28/03:30pm 7.9 4.3 5.0 82 1.4 W 13 24 7 13 - - 0.0
28/03:00pm 7.2 2.7 4.2 81 1.4 W 17 28 9 15 - - 0.0
28/02:30pm 6.6 2.9 4.4 86 1.0 W 13 20 7 11 - - 0.0
28/02:00pm 6.9 2.5 4.6 85 1.1 W 17 30 9 16 - - 0.0
28/01:30pm 6.5 2.7 3.7 82 1.3 W 13 24 7 13 - - 0.0
28/01:00pm 7.4 3.2 3.8 78 1.7 W 15 30 8 16 - - 0.0
28/12:30pm 6.8 3.1 4.3 84 1.2 W 13 22 7 12 - - 0.0
28/12:00pm 6.0 2.3 4.6 91 0.6 W 13 22 7 12 - - 0.0
28/11:30am 5.1 1.0 4.2 94 0.4 W 15 32 8 17 - - 0.0
28/11:00am 4.7 1.8 4.4 98 0.1 W 9 15 5 8 - - 0.0
28/10:30am 4.0 1.0 3.9 99 0.0 W 9 26 5 14 - - 0.0
28/10:00am 3.9 0.5 3.9 100 0.0 WSW 11 22 6 12 - - 0.0
28/09:30am 3.5 -2.8 3.5 100 0.0 WSW 26 39 14 21 - - 0.0
28/09:25am 3.2 -3.6 3.2 100 0.0 WSW 28 46 15 25 - - 0.0
28/09:00am 3.1 -2.0 3.1 100 0.0 W 19 33 10 18 - - 0.4
28/08:30am 2.6 -2.2 2.6 100 0.0 W 17 32 9 17 - - 0.4
28/08:00am 2.5 -1.6 2.5 100 0.0 WSW 13 28 7 15 - - 0.4
28/07:30am 2.3 -2.2 2.3 100 0.0 WSW 15 30 8 16 - - 0.4
28/07:00am 2.0 -3.5 2.0 100 0.0 WSW 20 41 11 22 - - 0.4
28/06:30am 1.9 -3.4 1.9 100 0.0 WSW 19 30 10 16 - - 0.4
28/06:00am 1.6 -3.8 1.5 99 0.0 WSW 19 35 10 19 - - 0.4
28/05:30am 1.6 -3.4 1.5 99 0.0 W 17 30 9 16 - - 0.4
28/05:00am 1.8 -3.1 1.7 99 0.0 WSW 17 35 9 19 - - 0.4
28/04:30am 1.9 -3.0 1.8 99 0.0 W 17 33 9 18 - - 0.4
28/04:00am 1.9 -2.7 1.8 99 0.0 WSW 15 28 8 15 - - 0.4
28/03:30am 1.9 -3.0 1.8 99 0.0 WSW 17 32 9 17 - - 0.4
28/03:00am 2.0 -3.5 1.9 99 0.0 WSW 20 33 11 18 - - 0.4
28/02:30am 1.9 -2.7 1.8 99 0.0 W 15 30 8 16 - - 0.4
28/02:00am 1.9 -1.9 1.8 99 0.0 WNW 11 24 6 13 - - 0.4
28/01:30am 2.1 -1.7 2.0 99 0.0 WNW 11 20 6 11 - - 0.4
28/01:00am 2.3 -2.6 2.2 99 0.0 W 17 30 9 16 - - 0.4
28/12:30am 2.4 -1.3 2.3 99 0.0 W 11 20 6 11 - - 0.4
28/12:00am 2.7 -1.4 2.4 98 0.1 W 13 28 7 15 - - 0.4
 
Date/Time
EDT
Temp
°C
App
Temp
°C
Dew
Point
°C
Rel
Hum
%
Delta-T
°C
Wind Press
QNH
hPa
Press
MSL
hPa
Rain since
9am
mm
Dir  Spd
km/h
Gust
km/h
Spd
kts
Gust
kts
27/11:30pm 3.4 0.6 3.1 98 0.1 WNW 7 19 4 10 - - 0.4
27/11:00pm 3.6 0.4 3.3 98 0.1 WNW 9 17 5 9 - - 0.4
27/10:30pm 3.6 0.0 3.2 97 0.2 W 11 22 6 12 - - 0.4
27/10:00pm 3.8 -0.5 3.1 95 0.3 W 15 28 8 15 - - 0.4
27/09:30pm 4.0 0.8 3.3 95 0.3 WNW 9 22 5 12 - - 0.4
27/09:00pm 4.4 0.9 3.5 94 0.4 WNW 11 20 6 11 - - 0.4
27/08:30pm 4.8 1.7 3.6 92 0.5 W 9 19 5 10 - - 0.4
27/08:00pm 5.3 1.4 3.5 88 0.8 WSW 13 24 7 13 - - 0.4
27/07:30pm 6.0 1.8 3.7 85 1.0 W 15 30 8 16 - - 0.4
27/07:00pm 7.0 3.5 3.6 79 1.6 W 11 30 6 16 - - 0.4
27/06:30pm 7.5 3.7 3.7 77 1.7 W 13 22 7 12 - - 0.4
27/06:00pm 7.9 3.8 4.5 79 1.6 W 15 32 8 17 - - 0.4
27/05:30pm 7.7 4.0 4.5 80 1.5 WSW 13 32 7 17 - - 0.4
27/05:00pm 7.8 4.3 5.6 86 1.1 W 13 26 7 14 - - 0.4
27/04:30pm 8.9 5.1 5.6 80 1.6 WNW 15 28 8 15 - - 0.4
27/04:00pm 8.6 4.4 7.4 92 0.6 W 19 32 10 17 - - 0.4
27/03:30pm 7.7 4.2 7.1 96 0.3 WNW 15 28 8 15 - - 0.4
27/03:00pm 7.1 2.8 7.0 99 0.0 WSW 19 39 10 21 - - 0.4
27/02:30pm 7.7 4.9 7.1 96 0.3 WSW 11 26 6 14 - - 0.4
27/02:00pm 7.9 4.5 7.8 99 0.1 W 15 35 8 19 - - 0.2
27/01:30pm 7.3 3.7 6.6 95 0.3 WSW 15 28 8 15 - - 0.2
27/01:00pm 8.1 5.4 5.7 85 1.2 W 9 17 5 9 - - 0.0
27/12:30pm 8.7 5.2 5.3 79 1.6 W 13 24 7 13 - - 0.0
27/12:00pm 7.8 4.3 5.4 85 1.2 W 13 26 7 14 - - 0.0
27/11:30am 6.8 3.3 5.4 91 0.7 WSW 13 22 7 12 - - 0.0
27/11:00am 6.1 2.5 5.2 94 0.4 W 13 26 7 14 - - 0.0
27/10:30am 5.8 1.9 5.4 97 0.2 WSW 15 28 8 15 - - 0.0
27/10:00am 5.4 0.5 5.3 99 0.0 WSW 20 33 11 18 - - 0.0
27/09:30am 5.2 -0.5 5.1 99 0.0 WSW 24 35 13 19 - - 0.0
27/09:00am 5.3 -0.3 5.3 100 0.0 WSW 24 37 13 20 - - 0.2
27/08:30am 5.3 -1.8 5.3 100 0.0 WSW 32 44 17 24 - - 0.2
27/08:00am 5.1 -2.3 5.1 100 0.0 WSW 33 43 18 23 - - 0.2
27/07:30am 4.9 -3.3 4.9 100 0.0 WSW 37 48 20 26 - - 0.2
27/07:00am 4.5 -2.0 4.5 100 0.0 WSW 28 39 15 21 - - 0.2
27/06:30am 5.0 0.3 5.0 100 0.0 W 19 33 10 18 - - 0.2
27/06:00am 5.3 1.0 5.3 100 0.0 W 17 22 9 12 - - 0.2
27/05:30am 5.2 -0.8 5.2 100 0.0 WSW 26 35 14 19 - - 0.2
27/05:00am 5.3 -1.5 5.3 100 0.0 WSW 30 39 16 21 - - 0.2
27/04:30am 5.8 1.2 5.8 100 0.0 WSW 19 28 10 15 - - 0.2
27/04:00am 6.2 -0.9 6.2 100 0.0 WSW 33 44 18 24 - - 0.2
27/03:30am 6.5 -2.7 6.5 100 0.0 WSW 44 57 24 31 - - 0.2
27/03:00am 6.8 -2.1 6.8 100 0.0 WSW 43 57 23 31 - - 0.2
27/02:30am 6.9 -1.6 6.9 100 0.0 W 41 56 22 30 - - 0.2
27/02:00am 6.9 -0.9 6.8 99 0.0 WSW 37 52 20 28 - - 0.2
27/01:30am 7.1 -0.2 7.0 99 0.0 WSW 35 52 19 28 - - 0.2
27/01:00am 7.3 -1.5 7.2 99 0.0 WSW 43 52 23 28 - - 0.2
27/12:30am 7.6 0.4 7.5 99 0.1 WSW 35 52 19 28 - - 0.2
27/12:26am 7.6 0.8 7.5 99 0.1 WSW 33 52 18 28 - - 0.2
27/12:00am 7.8 1.9 7.7 99 0.1 WSW 28 39 15 21 - - 0.2
 
Date/Time
EDT
Temp
°C
App
Temp
°C
Dew
Point
°C
Rel
Hum
%
Delta-T
°C
Wind Press
QNH
hPa
Press
MSL
hPa
Rain since
9am
mm
Dir  Spd
km/h
Gust
km/h
Spd
kts
Gust
kts
26/11:30pm 8.7 4.2 8.4 98 0.2 WSW 22 39 12 21 - - 0.2
26/11:00pm 9.6 6.5 9.0 96 0.3 W 15 30 8 16 - - 0.2
26/10:30pm 10.2 8.7 9.1 93 0.6 WNW 7 17 4 9 - - 0.2
26/10:00pm 10.7 8.5 9.5 92 0.6 W 11 33 6 18 - - 0.2
26/09:30pm 11.0 8.9 9.9 93 0.6 W 11 28 6 15 - - 0.2
26/09:00pm 11.2 8.1 10.4 95 0.4 W 17 32 9 17 - - 0.2
26/08:30pm 11.4 7.8 10.5 94 0.5 W 20 32 11 17 - - 0.2
26/08:00pm 11.7 4.2 10.9 95 0.4 W 41 65 22 35 - - 0.2
26/07:53pm 11.8 4.3 10.9 94 0.5 W 41 65 22 35 - - 0.2
26/07:30pm 12.4 4.7 10.3 87 1.2 W 41 56 22 30 - - 0.2
26/07:00pm 12.5 3.6 9.3 81 1.7 WNW 46 70 25 38 - - 0.2
26/06:30pm 12.9 4.1 9.4 79 1.9 WNW 46 70 25 38 - - 0.2
26/06:00pm 11.2 2.0 9.5 89 0.9 NW 48 76 26 41 - - 0.2
26/05:33pm 11.0 1.9 9.9 93 0.6 WNW 48 69 26 37 - - 0.2
26/05:30pm 10.7 1.5 9.5 92 0.6 WNW 48 65 26 35 - - 0.2
26/05:01pm 10.5 2.2 9.3 92 0.6 W 43 63 23 34 - - 0.2
26/05:00pm 10.6 2.7 9.4 92 0.6 W 41 56 22 30 - - 0.2
26/04:30pm 12.6 1.9 8.1 74 2.4 WNW 54 78 29 42 - - 0.0
26/04:00pm 13.4 3.1 8.3 71 2.7 WNW 52 82 28 44 - - 0.0
26/03:43pm 17.1 9.5 5.7 47 5.9 NW 35 76 19 41 - - 0.0
26/03:42pm 17.1 9.5 6.0 48 5.8 NW 35 61 19 33 - - 0.0

Other formats

Comma delimited format used in spreadsheet applications
http://www.bom.gov.au/fwo/IDV60801/IDV60801.94833.axf

JavaScript Object Notation format (JSON) in row-major order
http://www.bom.gov.au/fwo/IDV60801/IDV60801.94833.json

Data quality

Most of these data are generated automatically and are frequently updated. Quality checks on data are not normally performed. It is possible for incorrect values to appear. Refer to information at About Latest Weather Observations and please check the disclaimer before using these data.